| time (UTC) | temp F | wind direction | speed knots | gust knots | rain 1hr in | rain 24hr in | rain mn in | humidity % | barometer mb |
| 20260505071517 | 64 | 158 | 0.0 | 1.7 | 0.00 | 0.00 | 0.00 | 78 | 1006.5 |
| 20260505070036 | 64 | 127 | 0.0 | 3.5 | 0.00 | 0.00 | 0.00 | 78 | 1006.8 |
| 20260505064541 | 64 | 224 | 0.0 | 4.3 | 0.00 | 0.00 | 0.00 | 78 | 1007.0 |
| 20260505063051 | 64 | 139 | 0.0 | 2.6 | 0.00 | 0.00 | 0.00 | 79 | 1007.2 |
| 20260505061627 | 64 | 122 | 0.0 | 2.6 | 0.00 | 0.00 | 0.00 | 78 | 1007.5 |
| 20260505060015 | 64 | 156 | 0.0 | 1.7 | 0.00 | 0.00 | 0.00 | 77 | 1007.3 |
| 20260505054515 | 64 | 151 | 0.0 | 1.7 | 0.00 | 0.00 | 0.00 | 78 | 1007.6 |
| 20260505053025 | 64 | 226 | 0.0 | 0.0 | 0.00 | 0.00 | 0.00 | 78 | 1007.8 |
| 20260505051605 | 64 | 134 | 0.0 | 0.9 | 0.00 | 0.00 | 0.00 | 77 | 1008.2 |
| 20260505041556 | 65 | 151 | 0.0 | 0.0 | 0.00 | 0.00 | 0.00 | 76 | 1008.4 |
| 20260505040005 | 66 | 151 | 0.0 | 0.0 | 0.00 | 0.00 | 0.00 | 74 | 1008.5 |
| 20260505034504 | 66 | 207 | 0.0 | 1.7 | 0.00 | 0.00 | 0.00 | 74 | 1008.7 |
| 20260505033025 | 66 | 157 | 0.0 | 2.6 | 0.00 | 0.00 | 0.00 | 74 | 1008.8 |
| 20260505031524 | 66 | 134 | 0.0 | 0.0 | 0.00 | 0.00 | 0.00 | 73 | 1008.8 |
| 20260505030035 | 67 | 148 | 0.0 | 0.0 | 0.00 | 0.00 | 0.00 | 72 | 1008.5 |
| 20260505024552 | 67 | 158 | 0.0 | 0.9 | 0.00 | 0.00 | 0.00 | 71 | 1008.4 |
| 20260505023057 | 68 | 195 | 0.0 | 2.6 | 0.00 | 0.00 | 0.00 | 70 | 1008.2 |
| 20260505021522 | 68 | 162 | 0.0 | 0.9 | 0.00 | 0.00 | 0.00 | 70 | 1007.9 |
| 20260505020030 | 69 | 159 | 0.0 | 4.3 | 0.00 | 0.00 | 0.00 | 68 | 1008.0 |
| 20260505014540 | 69 | 178 | 0.0 | 3.5 | 0.00 | 0.00 | 0.00 | 68 | 1007.8 |
| 20260505013052 | 70 | 134 | 0.0 | 2.6 | 0.00 | 0.00 | 0.00 | 66 | 1007.6 |
| 20260505011508 | 71 | 219 | 0.9 | 7.0 | 0.00 | 0.00 | 0.00 | 64 | 1007.3 |
| 20260505010029 | 72 | 162 | 0.0 | 5.2 | 0.00 | 0.00 | 0.00 | 63 | 1007.0 |
| 20260505004537 | 72 | 216 | 2.6 | 6.1 | 0.00 | 0.00 | 0.00 | 62 | 1006.5 |
| 20260505003053 | 73 | 143 | 0.0 | 5.2 | 0.00 | 0.00 | 0.00 | 62 | 1006.6 |
| 20260505001603 | 73 | 158 | 0.0 | 7.0 | 0.00 | 0.00 | 0.00 | 61 | 1006.6 |
| 20260505000006 | 74 | 163 | 1.7 | 7.0 | 0.00 | 0.00 | 0.00 | 60 | 1006.7 |
| 20260504234521 | 75 | 155 | 0.9 | 6.1 | 0.00 | 0.00 | 0.00 | 58 | 1006.9 |
| 20260504233028 | 76 | 162 | 1.7 | 7.8 | 0.00 | 0.00 | 0.00 | 57 | 1006.8 |
| 20260504231547 | 76 | 214 | 0.9 | 7.8 | 0.00 | 0.00 | 0.00 | 57 | 1007.0 |
| 20260504230058 | 78 | 146 | 3.5 | 9.6 | 0.00 | 0.00 | 0.00 | 54 | 1007.2 |
| 20260504224511 | 79 | 143 | 2.6 | 10.4 | 0.00 | 0.00 | 0.00 | 53 | 1007.1 |
| 20260504223010 | 79 | 190 | 0.0 | 10.4 | 0.00 | 0.00 | 0.00 | 54 | 1007.0 |
| 20260504221511 | 80 | 255 | 1.7 | 7.0 | 0.00 | 0.00 | 0.00 | 52 | 1007.2 |
| 20260504220031 | 81 | 207 | 1.7 | 7.8 | 0.00 | 0.00 | 0.00 | 51 | 1007.1 |
| 20260504214531 | 81 | 346 | 0.9 | 7.0 | 0.00 | 0.00 | 0.00 | 52 | 1007.2 |
| 20260504213043 | 81 | 176 | 2.6 | 7.8 | 0.00 | 0.00 | 0.00 | 51 | 1007.3 |
| 20260504211549 | 81 | 198 | 0.0 | 7.8 | 0.00 | 0.00 | 0.00 | 50 | 1007.3 |
| 20260504210006 | 82 | 163 | 0.0 | 7.0 | 0.00 | 0.00 | 0.00 | 50 | 1007.6 |
| 20260504204526 | 81 | 124 | 0.9 | 8.7 | 0.00 | 0.00 | 0.00 | 51 | 1007.8 |
| 20260504203100 | 81 | 58 | 0.0 | 6.1 | 0.00 | 0.00 | 0.00 | 52 | 1007.8 |
| 20260504201555 | 81 | 236 | 2.6 | 12.2 | 0.00 | 0.00 | 0.00 | 50 | 1008.0 |
| 20260504200004 | 81 | 126 | 1.7 | 7.8 | 0.00 | 0.00 | 0.00 | 49 | 1008.2 |
| 20260504194524 | 81 | 117 | 2.6 | 9.6 | 0.00 | 0.00 | 0.00 | 52 | 1008.3 |
| 20260504193033 | 81 | 208 | 2.6 | 11.3 | 0.00 | 0.00 | 0.00 | 52 | 1008.5 |
| 20260504191551 | 80 | 226 | 3.5 | 10.4 | 0.00 | 0.00 | 0.00 | 51 | 1008.7 |
| 20260504190000 | 80 | 187 | 1.7 | 9.6 | 0.00 | 0.00 | 0.00 | 53 | 1008.6 |
| 20260504184519 | 80 | 179 | 1.7 | 9.6 | 0.00 | 0.00 | 0.00 | 53 | 1008.8 |
| 20260504183004 | 80 | 184 | 3.5 | 8.7 | 0.00 | 0.00 | 0.00 | 51 | 1008.7 |
| 20260504181522 | 79 | 63 | 2.6 | 9.6 | 0.00 | 0.00 | 0.00 | 52 | 1009.0 |
| 20260504180033 | 79 | 19 | 3.5 | 12.2 | 0.00 | 0.00 | 0.00 | 51 | 1009.2 |
| 20260504174543 | 79 | 217 | 3.5 | 12.2 | 0.00 | 0.00 | 0.00 | 50 | 1009.4 |
| 20260504173041 | 79 | 148 | 2.6 | 11.3 | 0.00 | 0.00 | 0.00 | 51 | 1009.5 |
| 20260504171553 | 78 | 73 | 2.6 | 14.8 | 0.00 | 0.00 | 0.00 | 55 | 1009.6 |
| 20260504081556 | 61 | 65 | 0.0 | 0.9 | 0.00 | 0.00 | 0.00 | 74 | 1012.7 |